sensor_id;sensor_type;location;lat;lon;timestamp;temperature;humidity
17348;DHT22;8791;50.876;4.342;2024-02-28T00:01:07;6.10;99.90
17348;DHT22;8791;50.876;4.342;2024-02-28T00:03:34;6.00;99.90
17348;DHT22;8791;50.876;4.342;2024-02-28T00:06:01;6.30;99.90
17348;DHT22;8791;50.876;4.342;2024-02-28T00:08:28;6.30;99.90
17348;DHT22;8791;50.876;4.342;2024-02-28T00:10:55;6.00;99.90
17348;DHT22;8791;50.876;4.342;2024-02-28T00:13:23;5.90;99.90
17348;DHT22;8791;50.876;4.342;2024-02-28T00:15:50;5.70;99.90
17348;DHT22;8791;50.876;4.342;2024-02-28T00:18:17;5.70;99.90
17348;DHT22;8791;50.876;4.342;2024-02-28T00:20:44;5.70;99.90
17348;DHT22;8791;50.876;4.342;2024-02-28T00:23:11;5.70;99.90
17348;DHT22;8791;50.876;4.342;2024-02-28T00:25:38;5.60;99.90
17348;DHT22;8791;50.876;4.342;2024-02-28T00:28:05;5.50;99.90
17348;DHT22;8791;50.876;4.342;2024-02-28T00:30:33;5.60;99.90
17348;DHT22;8791;50.876;4.342;2024-02-28T00:33:00;5.60;99.90
17348;DHT22;8791;50.876;4.342;2024-02-28T00:35:30;5.70;99.90
17348;DHT22;8791;50.876;4.342;2024-02-28T00:37:58;5.60;99.90
17348;DHT22;8791;50.876;4.342;2024-02-28T00:40:25;5.70;99.90
17348;DHT22;8791;50.876;4.342;2024-02-28T00:42:52;5.60;99.90
17348;DHT22;8791;50.876;4.342;2024-02-28T00:45:19;5.60;99.90
17348;DHT22;8791;50.876;4.342;2024-02-28T00:47:47;5.40;99.90
17348;DHT22;8791;50.876;4.342;2024-02-28T00:50:14;5.30;99.90
17348;DHT22;8791;50.876;4.342;2024-02-28T00:52:41;5.20;99.90
17348;DHT22;8791;50.876;4.342;2024-02-28T00:55:08;5.20;99.90
17348;DHT22;8791;50.876;4.342;2024-02-28T00:57:35;5.30;99.90
17348;DHT22;8791;50.876;4.342;2024-02-28T01:00:02;5.40;99.90
17348;DHT22;8791;50.876;4.342;2024-02-28T01:02:31;5.20;99.90
17348;DHT22;8791;50.876;4.342;2024-02-28T01:04:59;5.20;99.90
17348;DHT22;8791;50.876;4.342;2024-02-28T01:07:26;5.30;99.90
17348;DHT22;8791;50.876;4.342;2024-02-28T01:09:54;5.10;99.90
17348;DHT22;8791;50.876;4.342;2024-02-28T01:12:20;5.20;99.90
17348;DHT22;8791;50.876;4.342;2024-02-28T01:14:47;5.20;99.90
17348;DHT22;8791;50.876;4.342;2024-02-28T01:17:14;5.30;99.90
17348;DHT22;8791;50.876;4.342;2024-02-28T01:19:41;5.30;99.90
17348;DHT22;8791;50.876;4.342;2024-02-28T01:22:09;5.10;99.90
17348;DHT22;8791;50.876;4.342;2024-02-28T01:24:36;5.00;99.90
17348;DHT22;8791;50.876;4.342;2024-02-28T01:27:03;5.00;99.90
17348;DHT22;8791;50.876;4.342;2024-02-28T01:29:30;4.90;99.90
17348;DHT22;8791;50.876;4.342;2024-02-28T01:31:57;5.20;99.90
17348;DHT22;8791;50.876;4.342;2024-02-28T01:34:23;5.10;99.90
17348;DHT22;8791;50.876;4.342;2024-02-28T01:36:50;4.90;99.90
17348;DHT22;8791;50.876;4.342;2024-02-28T01:39:18;4.90;99.90
17348;DHT22;8791;50.876;4.342;2024-02-28T01:41:51;4.90;99.90
17348;DHT22;8791;50.876;4.342;2024-02-28T01:44:18;4.90;99.90
17348;DHT22;8791;50.876;4.342;2024-02-28T01:46:45;4.80;99.90
17348;DHT22;8791;50.876;4.342;2024-02-28T01:49:12;4.80;99.90
17348;DHT22;8791;50.876;4.342;2024-02-28T01:51:40;4.70;99.90
17348;DHT22;8791;50.876;4.342;2024-02-28T01:54:08;4.80;99.90
17348;DHT22;8791;50.876;4.342;2024-02-28T01:56:37;4.80;99.90
17348;DHT22;8791;50.876;4.342;2024-02-28T01:59:04;4.80;99.90
17348;DHT22;8791;50.876;4.342;2024-02-28T02:01:31;4.90;99.90
17348;DHT22;8791;50.876;4.342;2024-02-28T02:03:58;5.10;99.90
17348;DHT22;8791;50.876;4.342;2024-02-28T02:06:25;4.90;99.90
17348;DHT22;8791;50.876;4.342;2024-02-28T02:08:52;4.90;99.90
17348;DHT22;8791;50.876;4.342;2024-02-28T02:11:20;5.00;99.90
17348;DHT22;8791;50.876;4.342;2024-02-28T02:13:50;4.80;99.90
17348;DHT22;8791;50.876;4.342;2024-02-28T02:16:17;4.70;99.90
17348;DHT22;8791;50.876;4.342;2024-02-28T02:18:45;4.80;99.90
17348;DHT22;8791;50.876;4.342;2024-02-28T02:21:17;4.80;99.90
17348;DHT22;8791;50.876;4.342;2024-02-28T02:23:45;4.80;99.90
17348;DHT22;8791;50.876;4.342;2024-02-28T02:26:12;4.70;99.90
17348;DHT22;8791;50.876;4.342;2024-02-28T02:28:39;4.80;99.90
17348;DHT22;8791;50.876;4.342;2024-02-28T02:31:06;4.70;99.90
17348;DHT22;8791;50.876;4.342;2024-02-28T02:33:33;4.70;99.90
17348;DHT22;8791;50.876;4.342;2024-02-28T02:36:00;4.80;99.90
17348;DHT22;8791;50.876;4.342;2024-02-28T02:38:26;4.80;99.90
17348;DHT22;8791;50.876;4.342;2024-02-28T02:40:55;4.60;99.90
17348;DHT22;8791;50.876;4.342;2024-02-28T02:43:22;4.60;99.90
17348;DHT22;8791;50.876;4.342;2024-02-28T02:45:49;4.50;99.90
17348;DHT22;8791;50.876;4.342;2024-02-28T02:48:16;4.40;99.90
17348;DHT22;8791;50.876;4.342;2024-02-28T02:50:43;4.40;99.90
17348;DHT22;8791;50.876;4.342;2024-02-28T02:53:10;4.30;99.90
17348;DHT22;8791;50.876;4.342;2024-02-28T02:55:37;4.30;99.90
17348;DHT22;8791;50.876;4.342;2024-02-28T02:58:05;4.30;99.90
17348;DHT22;8791;50.876;4.342;2024-02-28T03:00:32;4.40;99.90
17348;DHT22;8791;50.876;4.342;2024-02-28T03:02:59;4.40;99.90
17348;DHT22;8791;50.876;4.342;2024-02-28T03:05:26;4.30;99.90
17348;DHT22;8791;50.876;4.342;2024-02-28T03:07:53;4.30;99.90
17348;DHT22;8791;50.876;4.342;2024-02-28T03:10:20;4.20;99.90
17348;DHT22;8791;50.876;4.342;2024-02-28T03:12:46;4.30;99.90
17348;DHT22;8791;50.876;4.342;2024-02-28T03:15:15;4.40;99.90
17348;DHT22;8791;50.876;4.342;2024-02-28T03:17:42;4.40;99.90
17348;DHT22;8791;50.876;4.342;2024-02-28T03:20:09;4.50;99.90
17348;DHT22;8791;50.876;4.342;2024-02-28T03:22:38;4.40;99.90
17348;DHT22;8791;50.876;4.342;2024-02-28T03:25:06;4.40;99.90
17348;DHT22;8791;50.876;4.342;2024-02-28T03:27:34;4.30;99.90
17348;DHT22;8791;50.876;4.342;2024-02-28T03:30:00;4.30;99.90
17348;DHT22;8791;50.876;4.342;2024-02-28T03:32:30;4.30;99.90
17348;DHT22;8791;50.876;4.342;2024-02-28T03:34:57;4.30;99.90
17348;DHT22;8791;50.876;4.342;2024-02-28T03:37:23;4.20;99.90
17348;DHT22;8791;50.876;4.342;2024-02-28T03:39:50;4.10;99.90
17348;DHT22;8791;50.876;4.342;2024-02-28T03:42:17;4.10;99.90
17348;DHT22;8791;50.876;4.342;2024-02-28T03:44:44;4.10;99.90
17348;DHT22;8791;50.876;4.342;2024-02-28T03:47:11;4.10;99.90
17348;DHT22;8791;50.876;4.342;2024-02-28T03:49:39;4.10;99.90
17348;DHT22;8791;50.876;4.342;2024-02-28T03:52:06;4.10;99.90
17348;DHT22;8791;50.876;4.342;2024-02-28T03:54:32;4.10;99.90
17348;DHT22;8791;50.876;4.342;2024-02-28T03:56:59;4.00;99.90
17348;DHT22;8791;50.876;4.342;2024-02-28T03:59:26;3.90;99.90
17348;DHT22;8791;50.876;4.342;2024-02-28T04:01:53;4.00;99.90
17348;DHT22;8791;50.876;4.342;2024-02-28T04:04:20;4.00;99.90
17348;DHT22;8791;50.876;4.342;2024-02-28T04:06:48;3.90;99.90
17348;DHT22;8791;50.876;4.342;2024-02-28T04:09:15;3.90;99.90
17348;DHT22;8791;50.876;4.342;2024-02-28T04:11:42;3.90;99.90
17348;DHT22;8791;50.876;4.342;2024-02-28T04:14:08;3.90;99.90
17348;DHT22;8791;50.876;4.342;2024-02-28T04:16:41;3.90;99.90
17348;DHT22;8791;50.876;4.342;2024-02-28T04:19:09;3.90;99.90
17348;DHT22;8791;50.876;4.342;2024-02-28T04:21:36;3.90;99.90
17348;DHT22;8791;50.876;4.342;2024-02-28T04:24:06;3.80;99.90
17348;DHT22;8791;50.876;4.342;2024-02-28T04:26:33;3.90;99.90
17348;DHT22;8791;50.876;4.342;2024-02-28T04:29:00;3.90;99.90
17348;DHT22;8791;50.876;4.342;2024-02-28T04:31:28;3.90;99.90
17348;DHT22;8791;50.876;4.342;2024-02-28T04:33:55;3.90;99.90
17348;DHT22;8791;50.876;4.342;2024-02-28T04:36:22;3.90;99.90
17348;DHT22;8791;50.876;4.342;2024-02-28T04:38:48;3.90;99.90
17348;DHT22;8791;50.876;4.342;2024-02-28T04:41:17;3.90;99.90
17348;DHT22;8791;50.876;4.342;2024-02-28T04:43:43;3.90;99.90
17348;DHT22;8791;50.876;4.342;2024-02-28T04:46:10;3.90;99.90
17348;DHT22;8791;50.876;4.342;2024-02-28T04:48:37;4.00;99.90
17348;DHT22;8791;50.876;4.342;2024-02-28T04:51:04;4.00;99.90
17348;DHT22;8791;50.876;4.342;2024-02-28T04:53:31;3.90;99.90
17348;DHT22;8791;50.876;4.342;2024-02-28T04:55:57;3.90;99.90
17348;DHT22;8791;50.876;4.342;2024-02-28T04:58:26;3.90;99.90
17348;DHT22;8791;50.876;4.342;2024-02-28T05:00:52;4.00;99.90
17348;DHT22;8791;50.876;4.342;2024-02-28T05:03:19;3.80;99.90
17348;DHT22;8791;50.876;4.342;2024-02-28T05:05:47;3.70;99.90
17348;DHT22;8791;50.876;4.342;2024-02-28T05:08:14;3.70;99.90
17348;DHT22;8791;50.876;4.342;2024-02-28T05:10:41;3.80;99.90
17348;DHT22;8791;50.876;4.342;2024-02-28T05:13:08;3.70;99.90
17348;DHT22;8791;50.876;4.342;2024-02-28T05:15:36;3.70;99.90
17348;DHT22;8791;50.876;4.342;2024-02-28T05:18:04;3.70;99.90
17348;DHT22;8791;50.876;4.342;2024-02-28T05:20:31;3.80;99.90
17348;DHT22;8791;50.876;4.342;2024-02-28T05:22:57;3.80;99.90
17348;DHT22;8791;50.876;4.342;2024-02-28T05:25:24;3.90;99.90
17348;DHT22;8791;50.876;4.342;2024-02-28T05:27:51;4.10;99.90
17348;DHT22;8791;50.876;4.342;2024-02-28T05:30:18;4.20;99.90
17348;DHT22;8791;50.876;4.342;2024-02-28T05:32:46;4.20;99.90
17348;DHT22;8791;50.876;4.342;2024-02-28T05:35:13;4.20;99.90
17348;DHT22;8791;50.876;4.342;2024-02-28T05:37:40;4.00;99.90
17348;DHT22;8791;50.876;4.342;2024-02-28T05:40:08;4.10;99.90
17348;DHT22;8791;50.876;4.342;2024-02-28T05:42:35;4.10;99.90
17348;DHT22;8791;50.876;4.342;2024-02-28T05:45:02;4.10;99.90
17348;DHT22;8791;50.876;4.342;2024-02-28T05:47:29;4.20;99.90
17348;DHT22;8791;50.876;4.342;2024-02-28T05:49:58;4.30;99.90
17348;DHT22;8791;50.876;4.342;2024-02-28T05:52:25;4.20;99.90
17348;DHT22;8791;50.876;4.342;2024-02-28T05:54:52;4.20;99.90
17348;DHT22;8791;50.876;4.342;2024-02-28T05:57:19;4.20;99.90
17348;DHT22;8791;50.876;4.342;2024-02-28T05:59:46;4.10;99.90
17348;DHT22;8791;50.876;4.342;2024-02-28T06:02:13;4.20;99.90
17348;DHT22;8791;50.876;4.342;2024-02-28T06:04:40;4.10;99.90
17348;DHT22;8791;50.876;4.342;2024-02-28T06:07:08;4.20;99.90
17348;DHT22;8791;50.876;4.342;2024-02-28T06:09:40;4.20;99.90
17348;DHT22;8791;50.876;4.342;2024-02-28T06:12:08;4.20;99.90
17348;DHT22;8791;50.876;4.342;2024-02-28T06:14:35;4.20;99.90
17348;DHT22;8791;50.876;4.342;2024-02-28T06:17:02;4.30;99.90
17348;DHT22;8791;50.876;4.342;2024-02-28T06:19:29;4.40;99.90
17348;DHT22;8791;50.876;4.342;2024-02-28T06:21:56;4.40;99.90
17348;DHT22;8791;50.876;4.342;2024-02-28T06:24:24;4.50;99.90
17348;DHT22;8791;50.876;4.342;2024-02-28T06:26:51;4.60;99.90
17348;DHT22;8791;50.876;4.342;2024-02-28T06:29:18;4.60;99.90
17348;DHT22;8791;50.876;4.342;2024-02-28T06:31:50;4.60;99.90
17348;DHT22;8791;50.876;4.342;2024-02-28T06:34:17;4.60;99.90
17348;DHT22;8791;50.876;4.342;2024-02-28T06:36:43;4.60;99.90
17348;DHT22;8791;50.876;4.342;2024-02-28T06:39:10;4.70;99.90
17348;DHT22;8791;50.876;4.342;2024-02-28T06:41:38;4.80;99.90
17348;DHT22;8791;50.876;4.342;2024-02-28T06:44:05;4.90;99.90
17348;DHT22;8791;50.876;4.342;2024-02-28T06:46:33;5.00;99.90
17348;DHT22;8791;50.876;4.342;2024-02-28T06:49:00;5.10;99.90
17348;DHT22;8791;50.876;4.342;2024-02-28T06:51:26;5.20;99.90
17348;DHT22;8791;50.876;4.342;2024-02-28T06:53:53;5.20;99.90
17348;DHT22;8791;50.876;4.342;2024-02-28T06:56:20;5.30;99.90
17348;DHT22;8791;50.876;4.342;2024-02-28T06:58:48;5.40;99.90
17348;DHT22;8791;50.876;4.342;2024-02-28T07:01:15;5.60;99.90
17348;DHT22;8791;50.876;4.342;2024-02-28T07:03:42;5.40;99.90
17348;DHT22;8791;50.876;4.342;2024-02-28T07:06:09;5.30;99.90
17348;DHT22;8791;50.876;4.342;2024-02-28T07:08:36;5.30;99.90
17348;DHT22;8791;50.876;4.342;2024-02-28T07:11:03;5.60;99.90
17348;DHT22;8791;50.876;4.342;2024-02-28T07:13:30;5.50;99.90
17348;DHT22;8791;50.876;4.342;2024-02-28T07:15:58;5.50;99.90
17348;DHT22;8791;50.876;4.342;2024-02-28T07:18:25;5.50;99.90
17348;DHT22;8791;50.876;4.342;2024-02-28T07:20:54;5.60;99.90
17348;DHT22;8791;50.876;4.342;2024-02-28T07:23:20;5.70;99.90
17348;DHT22;8791;50.876;4.342;2024-02-28T07:25:47;5.80;99.90
17348;DHT22;8791;50.876;4.342;2024-02-28T07:28:14;5.80;99.90
17348;DHT22;8791;50.876;4.342;2024-02-28T07:30:41;5.90;99.90
17348;DHT22;8791;50.876;4.342;2024-02-28T07:33:10;6.20;99.90
17348;DHT22;8791;50.876;4.342;2024-02-28T07:35:44;6.40;99.90
17348;DHT22;8791;50.876;4.342;2024-02-28T07:38:11;6.60;99.90
17348;DHT22;8791;50.876;4.342;2024-02-28T07:40:38;6.60;99.90
17348;DHT22;8791;50.876;4.342;2024-02-28T07:43:05;6.40;99.90
17348;DHT22;8791;50.876;4.342;2024-02-28T07:45:38;6.40;99.90
17348;DHT22;8791;50.876;4.342;2024-02-28T07:48:05;6.30;99.90
17348;DHT22;8791;50.876;4.342;2024-02-28T07:50:34;6.40;99.90
17348;DHT22;8791;50.876;4.342;2024-02-28T07:53:01;6.20;99.90
17348;DHT22;8791;50.876;4.342;2024-02-28T07:55:27;6.30;99.90
17348;DHT22;8791;50.876;4.342;2024-02-28T07:57:54;6.60;99.90
17348;DHT22;8791;50.876;4.342;2024-02-28T08:00:21;6.50;99.90
17348;DHT22;8791;50.876;4.342;2024-02-28T08:02:48;6.40;99.90
17348;DHT22;8791;50.876;4.342;2024-02-28T08:05:16;6.50;99.90
17348;DHT22;8791;50.876;4.342;2024-02-28T08:07:45;6.60;99.90
17348;DHT22;8791;50.876;4.342;2024-02-28T08:10:12;6.60;99.90
17348;DHT22;8791;50.876;4.342;2024-02-28T08:12:39;6.60;99.90
17348;DHT22;8791;50.876;4.342;2024-02-28T08:15:07;6.70;99.90
17348;DHT22;8791;50.876;4.342;2024-02-28T08:17:34;6.70;99.90
17348;DHT22;8791;50.876;4.342;2024-02-28T08:20:02;6.80;99.90
17348;DHT22;8791;50.876;4.342;2024-02-28T08:22:30;7.00;99.90
17348;DHT22;8791;50.876;4.342;2024-02-28T08:24:58;7.00;99.90
17348;DHT22;8791;50.876;4.342;2024-02-28T08:27:25;7.00;99.90
17348;DHT22;8791;50.876;4.342;2024-02-28T08:29:52;7.10;99.90
17348;DHT22;8791;50.876;4.342;2024-02-28T08:32:19;7.20;99.90
17348;DHT22;8791;50.876;4.342;2024-02-28T08:34:46;7.40;99.90
17348;DHT22;8791;50.876;4.342;2024-02-28T08:37:13;7.40;99.90
17348;DHT22;8791;50.876;4.342;2024-02-28T08:39:40;7.50;99.90
17348;DHT22;8791;50.876;4.342;2024-02-28T08:42:08;7.70;99.90
17348;DHT22;8791;50.876;4.342;2024-02-28T08:44:35;7.70;99.90
17348;DHT22;8791;50.876;4.342;2024-02-28T08:47:03;7.60;99.90
17348;DHT22;8791;50.876;4.342;2024-02-28T08:49:33;7.40;99.90
17348;DHT22;8791;50.876;4.342;2024-02-28T08:52:00;7.30;99.90
17348;DHT22;8791;50.876;4.342;2024-02-28T08:54:33;7.40;99.90
17348;DHT22;8791;50.876;4.342;2024-02-28T08:57:03;7.50;99.90
17348;DHT22;8791;50.876;4.342;2024-02-28T08:59:31;7.50;99.90
17348;DHT22;8791;50.876;4.342;2024-02-28T09:01:58;7.50;99.90
17348;DHT22;8791;50.876;4.342;2024-02-28T09:04:27;7.50;99.90
17348;DHT22;8791;50.876;4.342;2024-02-28T09:06:54;7.60;99.90
17348;DHT22;8791;50.876;4.342;2024-02-28T09:09:21;7.60;99.90
17348;DHT22;8791;50.876;4.342;2024-02-28T09:11:50;7.50;99.90
17348;DHT22;8791;50.876;4.342;2024-02-28T09:14:17;7.50;99.90
17348;DHT22;8791;50.876;4.342;2024-02-28T09:16:46;7.40;99.90
17348;DHT22;8791;50.876;4.342;2024-02-28T09:19:13;7.40;99.90
17348;DHT22;8791;50.876;4.342;2024-02-28T09:21:40;7.50;99.90
17348;DHT22;8791;50.876;4.342;2024-02-28T09:24:07;7.40;99.90
17348;DHT22;8791;50.876;4.342;2024-02-28T09:26:34;7.30;99.90
17348;DHT22;8791;50.876;4.342;2024-02-28T09:29:05;7.30;99.90
17348;DHT22;8791;50.876;4.342;2024-02-28T09:31:31;7.30;99.90
17348;DHT22;8791;50.876;4.342;2024-02-28T09:34:00;7.50;99.90
17348;DHT22;8791;50.876;4.342;2024-02-28T09:36:33;7.40;99.90
17348;DHT22;8791;50.876;4.342;2024-02-28T09:39:00;7.40;99.90
17348;DHT22;8791;50.876;4.342;2024-02-28T09:41:27;7.40;99.90
17348;DHT22;8791;50.876;4.342;2024-02-28T09:43:54;7.50;99.90
17348;DHT22;8791;50.876;4.342;2024-02-28T09:46:21;7.60;99.90
17348;DHT22;8791;50.876;4.342;2024-02-28T09:48:49;7.60;99.90
17348;DHT22;8791;50.876;4.342;2024-02-28T09:51:21;7.70;99.90
17348;DHT22;8791;50.876;4.342;2024-02-28T09:53:49;7.80;99.90
17348;DHT22;8791;50.876;4.342;2024-02-28T09:56:16;7.90;99.90
17348;DHT22;8791;50.876;4.342;2024-02-28T09:58:44;7.70;99.90
17348;DHT22;8791;50.876;4.342;2024-02-28T10:01:11;7.90;99.90
17348;DHT22;8791;50.876;4.342;2024-02-28T10:03:49;8.00;99.90
17348;DHT22;8791;50.876;4.342;2024-02-28T10:06:18;8.20;99.90
17348;DHT22;8791;50.876;4.342;2024-02-28T10:08:45;8.20;99.90
17348;DHT22;8791;50.876;4.342;2024-02-28T10:11:17;8.10;99.90
17348;DHT22;8791;50.876;4.342;2024-02-28T10:13:45;8.10;99.90
17348;DHT22;8791;50.876;4.342;2024-02-28T10:16:12;8.20;99.90
17348;DHT22;8791;50.876;4.342;2024-02-28T10:18:40;8.40;99.90
17348;DHT22;8791;50.876;4.342;2024-02-28T10:21:07;8.60;99.90
17348;DHT22;8791;50.876;4.342;2024-02-28T10:23:36;8.60;99.90
17348;DHT22;8791;50.876;4.342;2024-02-28T10:26:03;8.90;99.90
17348;DHT22;8791;50.876;4.342;2024-02-28T10:28:30;8.80;99.90
17348;DHT22;8791;50.876;4.342;2024-02-28T10:30:57;8.70;99.90
17348;DHT22;8791;50.876;4.342;2024-02-28T10:33:28;8.70;99.90
17348;DHT22;8791;50.876;4.342;2024-02-28T10:35:56;8.60;99.90
17348;DHT22;8791;50.876;4.342;2024-02-28T10:38:23;8.60;99.90
17348;DHT22;8791;50.876;4.342;2024-02-28T10:40:54;8.90;99.90
17348;DHT22;8791;50.876;4.342;2024-02-28T10:43:22;8.80;99.90
17348;DHT22;8791;50.876;4.342;2024-02-28T10:45:49;8.70;99.90
17348;DHT22;8791;50.876;4.342;2024-02-28T10:48:18;8.80;99.90
17348;DHT22;8791;50.876;4.342;2024-02-28T10:50:47;9.00;99.90
17348;DHT22;8791;50.876;4.342;2024-02-28T10:53:14;9.10;99.90
17348;DHT22;8791;50.876;4.342;2024-02-28T10:55:41;9.40;99.90
17348;DHT22;8791;50.876;4.342;2024-02-28T10:58:11;9.50;99.90
17348;DHT22;8791;50.876;4.342;2024-02-28T11:00:38;9.60;99.90
17348;DHT22;8791;50.876;4.342;2024-02-28T11:03:07;9.50;99.90
17348;DHT22;8791;50.876;4.342;2024-02-28T11:05:36;9.10;99.90
17348;DHT22;8791;50.876;4.342;2024-02-28T11:08:05;9.00;99.90
17348;DHT22;8791;50.876;4.342;2024-02-28T11:10:33;9.20;99.90
17348;DHT22;8791;50.876;4.342;2024-02-28T11:13:00;9.30;99.90
17348;DHT22;8791;50.876;4.342;2024-02-28T11:15:28;9.50;99.90
17348;DHT22;8791;50.876;4.342;2024-02-28T11:18:06;9.50;99.90
17348;DHT22;8791;50.876;4.342;2024-02-28T11:20:34;9.70;99.90
17348;DHT22;8791;50.876;4.342;2024-02-28T11:23:01;9.80;99.90
17348;DHT22;8791;50.876;4.342;2024-02-28T11:25:28;9.80;99.90
17348;DHT22;8791;50.876;4.342;2024-02-28T11:27:55;9.70;99.90
17348;DHT22;8791;50.876;4.342;2024-02-28T11:30:22;9.90;99.90
17348;DHT22;8791;50.876;4.342;2024-02-28T11:32:53;9.90;99.90
17348;DHT22;8791;50.876;4.342;2024-02-28T11:35:20;9.80;99.90
17348;DHT22;8791;50.876;4.342;2024-02-28T11:37:47;9.70;99.90
17348;DHT22;8791;50.876;4.342;2024-02-28T11:40:14;9.80;99.90
17348;DHT22;8791;50.876;4.342;2024-02-28T11:42:41;9.80;99.90
17348;DHT22;8791;50.876;4.342;2024-02-28T11:45:10;9.90;99.90
17348;DHT22;8791;50.876;4.342;2024-02-28T11:47:37;9.90;99.90
17348;DHT22;8791;50.876;4.342;2024-02-28T11:50:07;9.80;99.90
17348;DHT22;8791;50.876;4.342;2024-02-28T11:52:34;9.90;99.90
17348;DHT22;8791;50.876;4.342;2024-02-28T11:55:00;10.00;99.90
17348;DHT22;8791;50.876;4.342;2024-02-28T11:57:27;10.00;99.90
17348;DHT22;8791;50.876;4.342;2024-02-28T12:00:01;9.90;99.90
17348;DHT22;8791;50.876;4.342;2024-02-28T12:02:30;10.00;99.90
17348;DHT22;8791;50.876;4.342;2024-02-28T12:05:00;10.00;99.90
17348;DHT22;8791;50.876;4.342;2024-02-28T12:07:29;10.30;99.90
17348;DHT22;8791;50.876;4.342;2024-02-28T12:09:56;10.70;99.90
17348;DHT22;8791;50.876;4.342;2024-02-28T12:12:23;11.00;99.90
17348;DHT22;8791;50.876;4.342;2024-02-28T12:14:50;11.00;99.90
17348;DHT22;8791;50.876;4.342;2024-02-28T12:17:18;10.90;99.90
17348;DHT22;8791;50.876;4.342;2024-02-28T12:19:45;11.10;99.90
17348;DHT22;8791;50.876;4.342;2024-02-28T12:22:12;11.20;99.90
17348;DHT22;8791;50.876;4.342;2024-02-28T12:24:40;11.20;99.90
17348;DHT22;8791;50.876;4.342;2024-02-28T12:27:07;11.00;99.90
17348;DHT22;8791;50.876;4.342;2024-02-28T12:29:34;10.90;99.90
17348;DHT22;8791;50.876;4.342;2024-02-28T12:32:01;10.80;99.90
17348;DHT22;8791;50.876;4.342;2024-02-28T12:34:28;10.90;99.90
17348;DHT22;8791;50.876;4.342;2024-02-28T12:36:55;11.10;99.90
17348;DHT22;8791;50.876;4.342;2024-02-28T12:39:22;11.20;99.90
17348;DHT22;8791;50.876;4.342;2024-02-28T12:41:53;11.40;99.90
17348;DHT22;8791;50.876;4.342;2024-02-28T12:44:21;11.30;99.90
17348;DHT22;8791;50.876;4.342;2024-02-28T12:46:55;11.30;99.90
17348;DHT22;8791;50.876;4.342;2024-02-28T12:49:25;11.40;99.90
17348;DHT22;8791;50.876;4.342;2024-02-28T12:52:00;11.30;99.90
17348;DHT22;8791;50.876;4.342;2024-02-28T12:54:27;11.30;99.90
17348;DHT22;8791;50.876;4.342;2024-02-28T12:56:55;11.30;99.90
17348;DHT22;8791;50.876;4.342;2024-02-28T12:59:22;11.00;99.90
17348;DHT22;8791;50.876;4.342;2024-02-28T13:01:49;10.90;99.90
17348;DHT22;8791;50.876;4.342;2024-02-28T13:04:16;10.90;99.90
17348;DHT22;8791;50.876;4.342;2024-02-28T13:06:43;11.00;99.90
17348;DHT22;8791;50.876;4.342;2024-02-28T13:09:10;10.80;99.90
17348;DHT22;8791;50.876;4.342;2024-02-28T13:11:38;10.70;99.90
17348;DHT22;8791;50.876;4.342;2024-02-28T13:14:07;10.80;99.90
17348;DHT22;8791;50.876;4.342;2024-02-28T13:16:34;10.70;99.90
17348;DHT22;8791;50.876;4.342;2024-02-28T13:19:01;10.70;99.90
17348;DHT22;8791;50.876;4.342;2024-02-28T13:21:28;10.90;99.90
17348;DHT22;8791;50.876;4.342;2024-02-28T13:23:55;11.00;99.90
17348;DHT22;8791;50.876;4.342;2024-02-28T13:26:22;11.10;99.90
17348;DHT22;8791;50.876;4.342;2024-02-28T13:28:49;10.90;99.90
17348;DHT22;8791;50.876;4.342;2024-02-28T13:31:17;10.90;99.90
17348;DHT22;8791;50.876;4.342;2024-02-28T13:33:44;11.00;99.90
17348;DHT22;8791;50.876;4.342;2024-02-28T13:36:11;10.90;99.90
17348;DHT22;8791;50.876;4.342;2024-02-28T13:38:37;11.00;99.90
17348;DHT22;8791;50.876;4.342;2024-02-28T13:41:05;11.00;99.90
17348;DHT22;8791;50.876;4.342;2024-02-28T13:43:32;11.00;99.90
17348;DHT22;8791;50.876;4.342;2024-02-28T13:45:59;10.90;99.90
17348;DHT22;8791;50.876;4.342;2024-02-28T13:48:28;11.00;99.90
17348;DHT22;8791;50.876;4.342;2024-02-28T13:50:56;11.00;99.90
17348;DHT22;8791;50.876;4.342;2024-02-28T13:53:24;10.80;99.90
17348;DHT22;8791;50.876;4.342;2024-02-28T13:55:51;11.00;99.90
17348;DHT22;8791;50.876;4.342;2024-02-28T13:58:18;11.00;99.90
17348;DHT22;8791;50.876;4.342;2024-02-28T14:00:45;11.10;99.90
17348;DHT22;8791;50.876;4.342;2024-02-28T14:03:13;11.00;99.90
17348;DHT22;8791;50.876;4.342;2024-02-28T14:05:41;11.10;99.90
17348;DHT22;8791;50.876;4.342;2024-02-28T14:08:08;11.30;99.90
17348;DHT22;8791;50.876;4.342;2024-02-28T14:10:37;11.20;99.90
17348;DHT22;8791;50.876;4.342;2024-02-28T14:13:05;11.10;99.90
17348;DHT22;8791;50.876;4.342;2024-02-28T14:15:32;11.00;99.90
17348;DHT22;8791;50.876;4.342;2024-02-28T14:18:02;11.10;99.90
17348;DHT22;8791;50.876;4.342;2024-02-28T14:20:29;11.00;99.90
17348;DHT22;8791;50.876;4.342;2024-02-28T14:22:57;11.10;99.90
17348;DHT22;8791;50.876;4.342;2024-02-28T14:25:24;11.00;99.90
17348;DHT22;8791;50.876;4.342;2024-02-28T14:27:51;11.00;99.90
17348;DHT22;8791;50.876;4.342;2024-02-28T14:30:18;11.00;99.90
17348;DHT22;8791;50.876;4.342;2024-02-28T14:32:45;11.10;99.90
17348;DHT22;8791;50.876;4.342;2024-02-28T14:35:14;11.10;99.90
17348;DHT22;8791;50.876;4.342;2024-02-28T14:37:41;11.10;99.90
17348;DHT22;8791;50.876;4.342;2024-02-28T14:40:11;11.30;99.90
17348;DHT22;8791;50.876;4.342;2024-02-28T14:42:38;11.20;99.90
17348;DHT22;8791;50.876;4.342;2024-02-28T14:45:06;11.10;99.90
17348;DHT22;8791;50.876;4.342;2024-02-28T14:47:34;11.20;99.90
17348;DHT22;8791;50.876;4.342;2024-02-28T14:50:01;11.30;99.90
17348;DHT22;8791;50.876;4.342;2024-02-28T14:52:28;11.10;99.90
17348;DHT22;8791;50.876;4.342;2024-02-28T14:54:55;10.80;99.90
17348;DHT22;8791;50.876;4.342;2024-02-28T14:57:23;10.70;99.90
17348;DHT22;8791;50.876;4.342;2024-02-28T14:59:50;10.80;99.90
17348;DHT22;8791;50.876;4.342;2024-02-28T15:02:17;10.90;99.90
17348;DHT22;8791;50.876;4.342;2024-02-28T15:04:44;10.80;99.90
17348;DHT22;8791;50.876;4.342;2024-02-28T15:07:13;10.90;99.90
17348;DHT22;8791;50.876;4.342;2024-02-28T15:09:39;10.90;99.90
17348;DHT22;8791;50.876;4.342;2024-02-28T15:12:07;11.10;99.90
17348;DHT22;8791;50.876;4.342;2024-02-28T15:14:35;11.10;99.90
17348;DHT22;8791;50.876;4.342;2024-02-28T15:17:03;11.10;99.90
17348;DHT22;8791;50.876;4.342;2024-02-28T15:19:30;11.00;99.90
17348;DHT22;8791;50.876;4.342;2024-02-28T15:21:57;11.00;99.90
17348;DHT22;8791;50.876;4.342;2024-02-28T15:24:25;11.10;99.90
17348;DHT22;8791;50.876;4.342;2024-02-28T15:26:52;10.90;99.90
17348;DHT22;8791;50.876;4.342;2024-02-28T15:29:19;11.00;99.90
17348;DHT22;8791;50.876;4.342;2024-02-28T15:31:48;10.90;99.90
17348;DHT22;8791;50.876;4.342;2024-02-28T15:34:15;10.90;99.90
17348;DHT22;8791;50.876;4.342;2024-02-28T15:36:42;10.90;99.90
17348;DHT22;8791;50.876;4.342;2024-02-28T15:39:09;10.90;99.90
17348;DHT22;8791;50.876;4.342;2024-02-28T15:41:36;10.90;99.90
17348;DHT22;8791;50.876;4.342;2024-02-28T15:44:03;10.80;99.90
17348;DHT22;8791;50.876;4.342;2024-02-28T15:46:30;10.90;99.90
17348;DHT22;8791;50.876;4.342;2024-02-28T15:48:58;10.70;99.90
17348;DHT22;8791;50.876;4.342;2024-02-28T15:51:26;10.70;99.90
17348;DHT22;8791;50.876;4.342;2024-02-28T15:53:53;10.80;99.90
17348;DHT22;8791;50.876;4.342;2024-02-28T15:56:20;10.90;99.90
17348;DHT22;8791;50.876;4.342;2024-02-28T15:58:47;11.00;99.90